sensor_id;sensor_type;location;lat;lon;timestamp;pressure;altitude;pressure_sealevel;temperature;humidity
11605;BME280;5858;43.076;25.626;2022-08-25T00:01:36;98976.47;;;22.64;100.00
11605;BME280;5858;43.076;25.626;2022-08-25T00:04:06;98957.66;;;22.57;100.00
11605;BME280;5858;43.076;25.626;2022-08-25T00:06:35;98874.94;;;22.16;100.00
11605;BME280;5858;43.076;25.626;2022-08-25T00:09:03;98876.03;;;22.15;100.00
11605;BME280;5858;43.076;25.626;2022-08-25T00:11:32;98940.75;;;22.55;100.00
11605;BME280;5858;43.076;25.626;2022-08-25T00:14:03;98842.75;;;21.98;100.00
11605;BME280;5858;43.076;25.626;2022-08-25T00:16:31;98914.28;;;22.41;100.00
11605;BME280;5858;43.076;25.626;2022-08-25T00:19:03;98969.97;;;22.75;100.00
11605;BME280;5858;43.076;25.626;2022-08-25T00:21:30;98978.69;;;22.77;100.00
11605;BME280;5858;43.076;25.626;2022-08-25T00:23:58;98908.28;;;22.39;100.00
11605;BME280;5858;43.076;25.626;2022-08-25T00:26:27;98952.75;;;22.65;100.00
11605;BME280;5858;43.076;25.626;2022-08-25T00:28:54;98977.84;;;22.67;100.00
11605;BME280;5858;43.076;25.626;2022-08-25T00:31:26;98902.81;;;22.28;100.00
11605;BME280;5858;43.076;25.626;2022-08-25T00:33:53;98939.91;;;22.45;100.00
11605;BME280;5858;43.076;25.626;2022-08-25T00:36:22;98894.63;;;22.23;100.00
11605;BME280;5858;43.076;25.626;2022-08-25T00:38:49;98927.91;;;22.41;100.00
11605;BME280;5858;43.076;25.626;2022-08-25T00:41:18;98950.84;;;22.65;100.00
11605;BME280;5858;43.076;25.626;2022-08-25T00:43:49;98943.19;;;22.62;100.00
11605;BME280;5858;43.076;25.626;2022-08-25T00:46:18;98939.66;;;22.61;100.00
11605;BME280;5858;43.076;25.626;2022-08-25T00:48:50;98827.19;;;21.88;100.00
11605;BME280;5858;43.076;25.626;2022-08-25T00:51:27;98844.09;;;21.95;100.00
11605;BME280;5858;43.076;25.626;2022-08-25T00:53:55;98889.91;;;22.04;100.00
11605;BME280;5858;43.076;25.626;2022-08-25T00:56:24;98931.97;;;22.33;100.00
11605;BME280;5858;43.076;25.626;2022-08-25T00:58:53;98912.03;;;22.17;100.00
11605;BME280;5858;43.076;25.626;2022-08-25T01:01:20;98848.47;;;21.96;100.00
11605;BME280;5858;43.076;25.626;2022-08-25T01:03:47;98925.19;;;22.46;100.00
11605;BME280;5858;43.076;25.626;2022-08-25T01:06:15;98817.66;;;21.81;100.00
11605;BME280;5858;43.076;25.626;2022-08-25T01:08:45;98897.31;;;22.18;100.00
11605;BME280;5858;43.076;25.626;2022-08-25T01:11:12;98831.00;;;21.87;100.00
11605;BME280;5858;43.076;25.626;2022-08-25T01:13:46;98922.19;;;22.47;100.00
11605;BME280;5858;43.076;25.626;2022-08-25T01:16:15;98909.34;;;22.27;100.00
11605;BME280;5858;43.076;25.626;2022-08-25T01:18:45;98900.84;;;22.14;100.00
11605;BME280;5858;43.076;25.626;2022-08-25T01:21:15;98877.06;;;21.99;100.00
11605;BME280;5858;43.076;25.626;2022-08-25T01:23:45;98851.97;;;21.87;100.00
11605;BME280;5858;43.076;25.626;2022-08-25T01:26:16;98918.06;;;22.24;100.00
11605;BME280;5858;43.076;25.626;2022-08-25T01:28:46;98896.75;;;22.16;100.00
11605;BME280;5858;43.076;25.626;2022-08-25T01:31:30;98918.00;;;22.14;100.00
11605;BME280;5858;43.076;25.626;2022-08-25T01:33:57;98886.50;;;21.71;100.00
11605;BME280;5858;43.076;25.626;2022-08-25T01:36:29;98852.13;;;21.55;100.00
11605;BME280;5858;43.076;25.626;2022-08-25T01:38:56;98833.81;;;21.35;100.00
11605;BME280;5858;43.076;25.626;2022-08-25T01:41:34;98854.59;;;21.61;100.00
11605;BME280;5858;43.076;25.626;2022-08-25T01:44:03;98781.94;;;21.10;100.00
11605;BME280;5858;43.076;25.626;2022-08-25T01:46:31;98906.38;;;21.72;100.00
11605;BME280;5858;43.076;25.626;2022-08-25T01:49:08;98892.69;;;21.56;100.00
11605;BME280;5858;43.076;25.626;2022-08-25T01:51:39;98818.94;;;21.11;100.00
11605;BME280;5858;43.076;25.626;2022-08-25T01:54:07;98843.81;;;21.24;100.00
11605;BME280;5858;43.076;25.626;2022-08-25T01:56:34;98897.34;;;21.61;100.00
11605;BME280;5858;43.076;25.626;2022-08-25T01:59:01;98858.00;;;21.31;100.00
11605;BME280;5858;43.076;25.626;2022-08-25T02:01:28;98804.75;;;21.03;100.00
11605;BME280;5858;43.076;25.626;2022-08-25T02:03:56;98891.63;;;21.57;100.00
11605;BME280;5858;43.076;25.626;2022-08-25T02:06:24;98837.78;;;21.22;100.00
11605;BME280;5858;43.076;25.626;2022-08-25T02:08:56;98820.34;;;21.18;100.00
11605;BME280;5858;43.076;25.626;2022-08-25T02:11:25;98876.34;;;21.51;100.00
11605;BME280;5858;43.076;25.626;2022-08-25T02:13:52;98808.31;;;21.09;100.00
11605;BME280;5858;43.076;25.626;2022-08-25T02:16:22;98861.34;;;21.44;100.00
11605;BME280;5858;43.076;25.626;2022-08-25T02:18:49;98821.66;;;21.11;100.00
11605;BME280;5858;43.076;25.626;2022-08-25T02:21:17;98731.31;;;20.56;100.00
11605;BME280;5858;43.076;25.626;2022-08-25T02:23:44;98856.66;;;21.29;100.00
11605;BME280;5858;43.076;25.626;2022-08-25T02:26:13;98894.56;;;21.46;100.00
11605;BME280;5858;43.076;25.626;2022-08-25T02:28:43;98809.38;;;21.03;100.00
11605;BME280;5858;43.076;25.626;2022-08-25T02:31:10;98836.41;;;21.20;100.00
11605;BME280;5858;43.076;25.626;2022-08-25T02:33:37;98879.28;;;21.40;100.00
11605;BME280;5858;43.076;25.626;2022-08-25T02:36:05;98852.78;;;21.25;100.00
11605;BME280;5858;43.076;25.626;2022-08-25T02:38:32;98826.53;;;21.03;100.00
11605;BME280;5858;43.076;25.626;2022-08-25T02:41:00;98855.03;;;21.33;100.00
11605;BME280;5858;43.076;25.626;2022-08-25T02:43:28;98784.25;;;20.86;100.00
11605;BME280;5858;43.076;25.626;2022-08-25T02:45:55;98845.22;;;21.32;100.00
11605;BME280;5858;43.076;25.626;2022-08-25T02:48:22;98886.69;;;21.54;100.00
11605;BME280;5858;43.076;25.626;2022-08-25T02:50:50;98845.16;;;21.27;100.00
11605;BME280;5858;43.076;25.626;2022-08-25T02:53:18;98787.88;;;21.01;100.00
11605;BME280;5858;43.076;25.626;2022-08-25T02:55:45;98789.53;;;21.08;100.00
11605;BME280;5858;43.076;25.626;2022-08-25T02:58:12;98870.38;;;21.59;100.00
11605;BME280;5858;43.076;25.626;2022-08-25T03:00:40;98853.38;;;21.32;100.00
11605;BME280;5858;43.076;25.626;2022-08-25T03:03:07;98855.09;;;21.48;100.00
11605;BME280;5858;43.076;25.626;2022-08-25T03:05:34;98888.66;;;21.64;100.00
11605;BME280;5858;43.076;25.626;2022-08-25T03:08:01;98831.06;;;21.30;100.00
11605;BME280;5858;43.076;25.626;2022-08-25T03:10:29;98828.56;;;21.23;100.00
11605;BME280;5858;43.076;25.626;2022-08-25T03:12:56;98860.81;;;21.47;100.00
11605;BME280;5858;43.076;25.626;2022-08-25T03:15:23;98846.94;;;21.48;100.00
11605;BME280;5858;43.076;25.626;2022-08-25T03:17:54;98791.19;;;21.09;100.00
11605;BME280;5858;43.076;25.626;2022-08-25T03:20:21;98841.72;;;21.36;100.00
11605;BME280;5858;43.076;25.626;2022-08-25T03:22:49;98801.50;;;21.06;100.00
11605;BME280;5858;43.076;25.626;2022-08-25T03:25:17;98828.91;;;21.32;100.00
11605;BME280;5858;43.076;25.626;2022-08-25T03:28:08;98870.31;;;21.44;100.00
11605;BME280;5858;43.076;25.626;2022-08-25T03:30:39;98847.16;;;21.42;100.00
11605;BME280;5858;43.076;25.626;2022-08-25T03:33:07;98908.28;;;21.71;100.00
11605;BME280;5858;43.076;25.626;2022-08-25T03:35:34;98895.81;;;21.80;100.00
11605;BME280;5858;43.076;25.626;2022-08-25T03:38:02;98894.94;;;21.75;100.00
11605;BME280;5858;43.076;25.626;2022-08-25T03:40:29;98860.31;;;21.65;100.00
11605;BME280;5858;43.076;25.626;2022-08-25T03:42:57;98817.78;;;21.44;100.00
11605;BME280;5858;43.076;25.626;2022-08-25T03:45:24;98886.56;;;21.81;100.00
11605;BME280;5858;43.076;25.626;2022-08-25T03:47:52;98899.38;;;21.86;100.00
11605;BME280;5858;43.076;25.626;2022-08-25T03:50:21;98898.84;;;21.89;100.00
11605;BME280;5858;43.076;25.626;2022-08-25T03:52:52;98885.38;;;21.67;100.00
11605;BME280;5858;43.076;25.626;2022-08-25T03:55:21;98908.00;;;21.73;100.00
11605;BME280;5858;43.076;25.626;2022-08-25T03:57:48;98883.16;;;21.54;100.00
11605;BME280;5858;43.076;25.626;2022-08-25T04:00:16;98906.97;;;21.79;100.00
11605;BME280;5858;43.076;25.626;2022-08-25T04:02:43;98901.25;;;21.80;100.00
11605;BME280;5858;43.076;25.626;2022-08-25T04:05:10;98858.31;;;21.40;100.00
11605;BME280;5858;43.076;25.626;2022-08-25T04:07:39;98915.44;;;21.82;100.00
11605;BME280;5858;43.076;25.626;2022-08-25T04:10:07;98885.13;;;21.74;100.00
11605;BME280;5858;43.076;25.626;2022-08-25T04:12:35;98892.81;;;21.77;100.00
11605;BME280;5858;43.076;25.626;2022-08-25T04:15:04;98816.94;;;21.38;100.00
11605;BME280;5858;43.076;25.626;2022-08-25T04:17:31;98838.25;;;21.56;100.00
11605;BME280;5858;43.076;25.626;2022-08-25T04:19:59;98884.44;;;21.98;100.00
11605;BME280;5858;43.076;25.626;2022-08-25T04:22:27;98908.25;;;22.23;100.00
11605;BME280;5858;43.076;25.626;2022-08-25T04:24:57;98882.59;;;22.19;100.00
11605;BME280;5858;43.076;25.626;2022-08-25T04:27:24;98913.47;;;22.50;100.00
11605;BME280;5858;43.076;25.626;2022-08-25T04:29:51;98845.53;;;22.18;100.00
11605;BME280;5858;43.076;25.626;2022-08-25T04:32:18;98819.34;;;22.17;100.00
11605;BME280;5858;43.076;25.626;2022-08-25T04:34:45;98861.09;;;22.48;100.00
11605;BME280;5858;43.076;25.626;2022-08-25T04:37:13;98878.28;;;22.59;100.00
11605;BME280;5858;43.076;25.626;2022-08-25T04:39:39;98833.84;;;22.33;100.00
11605;BME280;5858;43.076;25.626;2022-08-25T04:42:08;98934.81;;;22.94;100.00
11605;BME280;5858;43.076;25.626;2022-08-25T04:44:35;98918.41;;;22.99;100.00
11605;BME280;5858;43.076;25.626;2022-08-25T04:47:03;98859.75;;;22.61;100.00
11605;BME280;5858;43.076;25.626;2022-08-25T04:49:30;98858.09;;;22.65;100.00
11605;BME280;5858;43.076;25.626;2022-08-25T04:51:57;98840.13;;;22.74;100.00
11605;BME280;5858;43.076;25.626;2022-08-25T04:54:24;98927.38;;;23.45;100.00
11605;BME280;5858;43.076;25.626;2022-08-25T04:56:54;98868.13;;;23.36;97.68
11605;BME280;5858;43.076;25.626;2022-08-25T04:59:22;98865.66;;;23.44;98.23
11605;BME280;5858;43.076;25.626;2022-08-25T05:01:49;98863.72;;;23.50;96.44
11605;BME280;5858;43.076;25.626;2022-08-25T05:04:19;98838.28;;;23.54;95.36
11605;BME280;5858;43.076;25.626;2022-08-25T05:06:46;98793.78;;;23.59;94.94
11605;BME280;5858;43.076;25.626;2022-08-25T05:09:13;98877.88;;;24.27;92.96
11605;BME280;5858;43.076;25.626;2022-08-25T05:11:40;98885.88;;;24.62;92.13
11605;BME280;5858;43.076;25.626;2022-08-25T05:14:07;98774.13;;;24.01;91.13
11605;BME280;5858;43.076;25.626;2022-08-25T05:16:38;98788.72;;;24.31;89.54
11605;BME280;5858;43.076;25.626;2022-08-25T05:19:06;98885.78;;;24.72;89.48
11605;BME280;5858;43.076;25.626;2022-08-25T05:21:33;98884.19;;;25.00;88.85
11605;BME280;5858;43.076;25.626;2022-08-25T05:24:02;98903.28;;;25.34;88.13
11605;BME280;5858;43.076;25.626;2022-08-25T05:26:31;98890.72;;;25.04;87.83
11605;BME280;5858;43.076;25.626;2022-08-25T05:29:00;98872.72;;;24.93;88.11
11605;BME280;5858;43.076;25.626;2022-08-25T05:31:28;98904.97;;;25.30;86.70
11605;BME280;5858;43.076;25.626;2022-08-25T05:33:58;98852.22;;;24.91;87.19
11605;BME280;5858;43.076;25.626;2022-08-25T05:36:27;98919.19;;;25.32;86.53
11605;BME280;5858;43.076;25.626;2022-08-25T05:38:55;98843.56;;;24.78;87.81
11605;BME280;5858;43.076;25.626;2022-08-25T05:41:26;98932.31;;;25.35;86.99
11605;BME280;5858;43.076;25.626;2022-08-25T05:43:53;98926.00;;;25.06;87.59
11605;BME280;5858;43.076;25.626;2022-08-25T05:46:21;98946.16;;;25.20;88.16
11605;BME280;5858;43.076;25.626;2022-08-25T05:48:48;98886.00;;;24.76;87.96
11605;BME280;5858;43.076;25.626;2022-08-25T05:51:17;98855.25;;;24.11;89.13
11605;BME280;5858;43.076;25.626;2022-08-25T05:53:46;98956.69;;;24.69;89.57
11605;BME280;5858;43.076;25.626;2022-08-25T05:56:13;98886.06;;;24.27;90.25
11605;BME280;5858;43.076;25.626;2022-08-25T05:58:41;98942.34;;;24.82;89.54
11605;BME280;5858;43.076;25.626;2022-08-25T06:01:17;98959.88;;;24.81;89.61
11605;BME280;5858;43.076;25.626;2022-08-25T06:04:02;98948.97;;;24.76;90.37
11605;BME280;5858;43.076;25.626;2022-08-25T06:06:30;98905.34;;;24.51;90.03
11605;BME280;5858;43.076;25.626;2022-08-25T06:08:58;98906.16;;;24.51;90.50
11605;BME280;5858;43.076;25.626;2022-08-25T06:11:25;98815.09;;;24.06;89.43
11605;BME280;5858;43.076;25.626;2022-08-25T06:13:52;98942.06;;;24.84;88.34
11605;BME280;5858;43.076;25.626;2022-08-25T06:16:21;98911.63;;;24.51;88.06
11605;BME280;5858;43.076;25.626;2022-08-25T06:18:48;98881.38;;;24.37;88.65
11605;BME280;5858;43.076;25.626;2022-08-25T06:21:15;98868.34;;;24.19;88.85
11605;BME280;5858;43.076;25.626;2022-08-25T06:23:44;98862.09;;;24.13;89.51
11605;BME280;5858;43.076;25.626;2022-08-25T06:26:13;98890.66;;;24.41;89.67
11605;BME280;5858;43.076;25.626;2022-08-25T06:28:42;98820.53;;;24.11;89.03
11605;BME280;5858;43.076;25.626;2022-08-25T06:31:11;98915.88;;;24.72;87.66
11605;BME280;5858;43.076;25.626;2022-08-25T06:33:41;98764.34;;;23.95;87.33
11605;BME280;5858;43.076;25.626;2022-08-25T06:36:14;98846.69;;;24.67;85.89
11605;BME280;5858;43.076;25.626;2022-08-25T06:38:46;98851.50;;;24.80;85.39
11605;BME280;5858;43.076;25.626;2022-08-25T06:41:22;98908.66;;;25.21;84.39
11605;BME280;5858;43.076;25.626;2022-08-25T06:43:52;98856.75;;;25.05;84.46
11605;BME280;5858;43.076;25.626;2022-08-25T06:46:22;98852.09;;;25.06;82.39
11605;BME280;5858;43.076;25.626;2022-08-25T06:48:59;98958.41;;;25.57;83.49
11605;BME280;5858;43.076;25.626;2022-08-25T06:51:31;98916.34;;;25.42;82.73
11605;BME280;5858;43.076;25.626;2022-08-25T06:54:14;98793.63;;;24.92;82.25
11605;BME280;5858;43.076;25.626;2022-08-25T06:56:47;98920.22;;;25.89;80.94
11605;BME280;5858;43.076;25.626;2022-08-25T06:59:15;98830.19;;;25.54;79.47
11605;BME280;5858;43.076;25.626;2022-08-25T07:01:45;98766.16;;;25.26;77.96
11605;BME280;5858;43.076;25.626;2022-08-25T07:04:12;98795.16;;;25.51;77.02
11605;BME280;5858;43.076;25.626;2022-08-25T07:06:42;98913.03;;;26.17;77.41
11605;BME280;5858;43.076;25.626;2022-08-25T07:09:12;98878.63;;;26.06;76.15
11605;BME280;5858;43.076;25.626;2022-08-25T07:11:41;98810.78;;;25.50;75.51
11605;BME280;5858;43.076;25.626;2022-08-25T07:14:11;98866.84;;;26.24;75.62
11605;BME280;5858;43.076;25.626;2022-08-25T07:16:44;98771.66;;;25.87;73.40
11605;BME280;5858;43.076;25.626;2022-08-25T07:19:13;98874.34;;;26.38;72.18
11605;BME280;5858;43.076;25.626;2022-08-25T07:21:54;98862.59;;;26.32;71.67
11605;BME280;5858;43.076;25.626;2022-08-25T07:24:24;98850.31;;;26.11;71.20
11605;BME280;5858;43.076;25.626;2022-08-25T07:26:51;98887.38;;;26.27;70.46
11605;BME280;5858;43.076;25.626;2022-08-25T07:29:20;98895.78;;;26.35;71.73
11605;BME280;5858;43.076;25.626;2022-08-25T07:31:48;98795.38;;;25.97;70.47
11605;BME280;5858;43.076;25.626;2022-08-25T07:34:21;98907.38;;;26.84;68.58
11605;BME280;5858;43.076;25.626;2022-08-25T07:37:11;98797.44;;;26.24;69.05
11605;BME280;5858;43.076;25.626;2022-08-25T07:39:40;98939.38;;;27.26;67.98
11605;BME280;5858;43.076;25.626;2022-08-25T07:42:13;98909.81;;;26.85;69.10
11605;BME280;5858;43.076;25.626;2022-08-25T07:44:40;98908.50;;;27.02;69.47
11605;BME280;5858;43.076;25.626;2022-08-25T07:47:19;98825.09;;;26.27;69.92
11605;BME280;5858;43.076;25.626;2022-08-25T07:49:46;98952.59;;;27.24;70.63
11605;BME280;5858;43.076;25.626;2022-08-25T07:52:14;98885.88;;;26.72;70.04
11605;BME280;5858;43.076;25.626;2022-08-25T07:54:52;98952.06;;;27.08;67.32
11605;BME280;5858;43.076;25.626;2022-08-25T07:57:20;98886.50;;;26.69;66.42
11605;BME280;5858;43.076;25.626;2022-08-25T07:59:57;98905.41;;;26.71;67.46
11605;BME280;5858;43.076;25.626;2022-08-25T08:02:26;98910.72;;;26.81;68.25
11605;BME280;5858;43.076;25.626;2022-08-25T08:04:53;98850.91;;;26.45;67.95
11605;BME280;5858;43.076;25.626;2022-08-25T08:07:25;98842.53;;;26.18;67.66
11605;BME280;5858;43.076;25.626;2022-08-25T08:09:55;98843.78;;;26.44;66.84
11605;BME280;5858;43.076;25.626;2022-08-25T08:12:25;98787.06;;;26.21;66.64
11605;BME280;5858;43.076;25.626;2022-08-25T08:14:57;98848.16;;;26.64;67.30
11605;BME280;5858;43.076;25.626;2022-08-25T08:17:25;98847.75;;;26.71;66.53
11605;BME280;5858;43.076;25.626;2022-08-25T08:19:52;98876.88;;;27.18;65.51
11605;BME280;5858;43.076;25.626;2022-08-25T08:22:20;98786.75;;;26.74;64.36
11605;BME280;5858;43.076;25.626;2022-08-25T08:24:46;98862.66;;;27.43;65.17
11605;BME280;5858;43.076;25.626;2022-08-25T08:27:15;98893.94;;;27.75;64.35
11605;BME280;5858;43.076;25.626;2022-08-25T08:29:42;98897.81;;;27.87;63.97
11605;BME280;5858;43.076;25.626;2022-08-25T08:32:11;98793.97;;;27.16;65.03
11605;BME280;5858;43.076;25.626;2022-08-25T08:34:39;98841.00;;;27.69;65.05
11605;BME280;5858;43.076;25.626;2022-08-25T08:37:06;98829.31;;;27.64;62.84
11605;BME280;5858;43.076;25.626;2022-08-25T08:39:35;98790.69;;;27.41;62.33
11605;BME280;5858;43.076;25.626;2022-08-25T08:42:21;98853.00;;;27.73;62.42
11605;BME280;5858;43.076;25.626;2022-08-25T08:45:03;98891.50;;;27.73;62.35
11605;BME280;5858;43.076;25.626;2022-08-25T08:47:42;98793.91;;;26.88;63.25
11605;BME280;5858;43.076;25.626;2022-08-25T08:50:22;98916.97;;;27.65;63.82
11605;BME280;5858;43.076;25.626;2022-08-25T08:52:54;98822.97;;;26.89;63.53
11605;BME280;5858;43.076;25.626;2022-08-25T08:55:27;98892.78;;;27.35;64.14
11605;BME280;5858;43.076;25.626;2022-08-25T08:58:00;98889.34;;;27.56;63.38
11605;BME280;5858;43.076;25.626;2022-08-25T09:00:30;98860.31;;;27.23;63.69
11605;BME280;5858;43.076;25.626;2022-08-25T09:03:03;98881.09;;;27.56;63.32
11605;BME280;5858;43.076;25.626;2022-08-25T09:05:36;98889.56;;;27.74;62.59
11605;BME280;5858;43.076;25.626;2022-08-25T09:08:10;98779.09;;;27.31;63.79
11605;BME280;5858;43.076;25.626;2022-08-25T09:10:46;98890.22;;;28.20;62.12
11605;BME280;5858;43.076;25.626;2022-08-25T09:13:27;98894.06;;;28.47;60.59
11605;BME280;5858;43.076;25.626;2022-08-25T09:16:05;98869.31;;;28.33;60.70
11605;BME280;5858;43.076;25.626;2022-08-25T09:18:58;98900.88;;;28.49;60.31
11605;BME280;5858;43.076;25.626;2022-08-25T09:21:33;98833.03;;;28.31;60.33
11605;BME280;5858;43.076;25.626;2022-08-25T09:24:13;98760.72;;;27.81;60.33
11605;BME280;5858;43.076;25.626;2022-08-25T09:26:50;98803.84;;;27.72;58.26
11605;BME280;5858;43.076;25.626;2022-08-25T09:29:23;98816.84;;;27.94;58.88
11605;BME280;5858;43.076;25.626;2022-08-25T09:32:05;98885.50;;;28.71;58.23
11605;BME280;5858;43.076;25.626;2022-08-25T09:34:33;98784.66;;;27.94;56.06
11605;BME280;5858;43.076;25.626;2022-08-25T09:37:01;98832.53;;;28.29;57.07
11605;BME280;5858;43.076;25.626;2022-08-25T09:39:28;98837.34;;;28.24;56.08
11605;BME280;5858;43.076;25.626;2022-08-25T09:41:56;98870.31;;;28.37;56.10
11605;BME280;5858;43.076;25.626;2022-08-25T09:44:32;98864.81;;;28.37;56.93
11605;BME280;5858;43.076;25.626;2022-08-25T09:47:03;98720.78;;;27.61;56.85
11605;BME280;5858;43.076;25.626;2022-08-25T09:49:35;98853.72;;;28.42;56.40
11605;BME280;5858;43.076;25.626;2022-08-25T09:55:25;98853.38;;;28.66;57.10
11605;BME280;5858;43.076;25.626;2022-08-25T09:57:54;98836.16;;;28.83;54.39
11605;BME280;5858;43.076;25.626;2022-08-25T10:00:26;98849.97;;;29.14;54.14
11605;BME280;5858;43.076;25.626;2022-08-25T10:03:04;98695.34;;;28.22;52.80
11605;BME280;5858;43.076;25.626;2022-08-25T10:05:33;98798.81;;;28.91;51.78
11605;BME280;5858;43.076;25.626;2022-08-25T10:08:03;98846.53;;;29.08;53.17
11605;BME280;5858;43.076;25.626;2022-08-25T10:10:41;98823.66;;;28.99;52.38
11605;BME280;5858;43.076;25.626;2022-08-25T10:13:13;98842.53;;;29.45;52.05
11605;BME280;5858;43.076;25.626;2022-08-25T10:15:43;98761.13;;;29.08;50.45
11605;BME280;5858;43.076;25.626;2022-08-25T10:18:23;98845.69;;;29.70;49.48
11605;BME280;5858;43.076;25.626;2022-08-25T10:21:10;98819.88;;;29.66;49.93
11605;BME280;5858;43.076;25.626;2022-08-25T10:23:41;98818.66;;;29.41;50.12
11605;BME280;5858;43.076;25.626;2022-08-25T10:26:14;98834.06;;;29.42;51.77
11605;BME280;5858;43.076;25.626;2022-08-25T10:28:55;98809.22;;;29.33;51.94
11605;BME280;5858;43.076;25.626;2022-08-25T10:31:32;98834.59;;;29.44;50.85
11605;BME280;5858;43.076;25.626;2022-08-25T10:34:16;98737.47;;;29.07;50.23
11605;BME280;5858;43.076;25.626;2022-08-25T10:36:55;98780.38;;;29.39;48.90
11605;BME280;5858;43.076;25.626;2022-08-25T10:39:34;98801.06;;;29.76;48.43
11605;BME280;5858;43.076;25.626;2022-08-25T10:42:15;98707.03;;;29.21;49.03
11605;BME280;5858;43.076;25.626;2022-08-25T10:45:18;98811.53;;;30.05;47.37
11605;BME280;5858;43.076;25.626;2022-08-25T10:51:28;98747.13;;;29.36;48.43
11605;BME280;5858;43.076;25.626;2022-08-25T10:54:04;98812.56;;;29.70;47.99
11605;BME280;5858;43.076;25.626;2022-08-25T10:56:34;98752.81;;;29.39;48.69
11605;BME280;5858;43.076;25.626;2022-08-25T11:02:28;98765.53;;;29.75;47.87
11605;BME280;5858;43.076;25.626;2022-08-25T11:05:06;98796.59;;;30.15;47.59
11605;BME280;5858;43.076;25.626;2022-08-25T11:07:39;98790.56;;;29.96;47.56
11605;BME280;5858;43.076;25.626;2022-08-25T11:10:12;98804.34;;;29.96;48.67
11605;BME280;5858;43.076;25.626;2022-08-25T11:12:42;98802.13;;;30.06;48.32
11605;BME280;5858;43.076;25.626;2022-08-25T11:15:14;98778.88;;;29.90;48.73
11605;BME280;5858;43.076;25.626;2022-08-25T11:17:47;98804.38;;;30.22;48.66
11605;BME280;5858;43.076;25.626;2022-08-25T11:20:22;98774.50;;;29.98;48.31
11605;BME280;5858;43.076;25.626;2022-08-25T11:23:03;98746.53;;;29.73;49.07
11605;BME280;5858;43.076;25.626;2022-08-25T11:25:36;98681.66;;;29.59;48.40
11605;BME280;5858;43.076;25.626;2022-08-25T11:28:09;98687.34;;;29.97;48.07
11605;BME280;5858;43.076;25.626;2022-08-25T11:30:37;98719.75;;;30.43;47.13
11605;BME280;5858;43.076;25.626;2022-08-25T11:33:05;98702.03;;;30.53;45.10
11605;BME280;5858;43.076;25.626;2022-08-25T11:35:37;98728.31;;;30.76;44.61
11605;BME280;5858;43.076;25.626;2022-08-25T11:38:31;98728.53;;;31.00;45.08
11605;BME280;5858;43.076;25.626;2022-08-25T11:41:13;98638.44;;;30.32;44.28
11605;BME280;5858;43.076;25.626;2022-08-25T11:43:57;98633.13;;;30.10;44.42
11605;BME280;5858;43.076;25.626;2022-08-25T11:46:41;98753.03;;;30.47;46.11
11605;BME280;5858;43.076;25.626;2022-08-25T11:49:47;98772.53;;;30.50;45.79
11605;BME280;5858;43.076;25.626;2022-08-25T11:52:40;98774.66;;;30.45;46.36
11605;BME280;5858;43.076;25.626;2022-08-25T11:55:12;98752.91;;;30.17;47.60
11605;BME280;5858;43.076;25.626;2022-08-25T11:57:41;98744.31;;;30.19;47.47
11605;BME280;5858;43.076;25.626;2022-08-25T12:00:14;98738.72;;;30.53;46.59
11605;BME280;5858;43.076;25.626;2022-08-25T12:02:43;98773.06;;;30.99;44.97
11605;BME280;5858;43.076;25.626;2022-08-25T12:05:50;98691.78;;;30.62;45.94
11605;BME280;5858;43.076;25.626;2022-08-25T12:08:47;98767.94;;;31.27;43.82
11605;BME280;5858;43.076;25.626;2022-08-25T12:12:02;98692.50;;;30.88;44.42
11605;BME280;5858;43.076;25.626;2022-08-25T12:14:50;98680.25;;;30.98;42.29
11605;BME280;5858;43.076;25.626;2022-08-25T12:17:26;98759.56;;;31.44;43.09
11605;BME280;5858;43.076;25.626;2022-08-25T12:20:03;98696.06;;;30.89;43.36
11605;BME280;5858;43.076;25.626;2022-08-25T12:22:57;98756.38;;;31.54;42.67
11605;BME280;5858;43.076;25.626;2022-08-25T12:25:48;98738.38;;;31.69;42.09
11605;BME280;5858;43.076;25.626;2022-08-25T12:28:51;98752.56;;;31.68;41.25
11605;BME280;5858;43.076;25.626;2022-08-25T12:31:49;98743.09;;;31.48;41.85
11605;BME280;5858;43.076;25.626;2022-08-25T12:34:31;98706.25;;;31.35;41.22
11605;BME280;5858;43.076;25.626;2022-08-25T12:37:04;98740.34;;;31.69;41.03
11605;BME280;5858;43.076;25.626;2022-08-25T12:39:43;98699.19;;;31.46;40.67
11605;BME280;5858;43.076;25.626;2022-08-25T12:42:22;98702.75;;;31.47;40.09
11605;BME280;5858;43.076;25.626;2022-08-25T12:45:10;98719.00;;;31.78;40.96
11605;BME280;5858;43.076;25.626;2022-08-25T12:47:40;98709.81;;;31.86;40.84
11605;BME280;5858;43.076;25.626;2022-08-25T12:50:31;98682.38;;;31.51;39.79
11605;BME280;5858;43.076;25.626;2022-08-25T12:53:09;98703.50;;;31.35;38.25
11605;BME280;5858;43.076;25.626;2022-08-25T12:55:39;98648.72;;;30.61;38.47
11605;BME280;5858;43.076;25.626;2022-08-25T12:58:07;98681.97;;;31.11;38.78
11605;BME280;5858;43.076;25.626;2022-08-25T13:00:48;98662.13;;;31.09;37.59
11605;BME280;5858;43.076;25.626;2022-08-25T13:03:32;98725.34;;;31.49;36.59
11605;BME280;5858;43.076;25.626;2022-08-25T13:06:23;98641.56;;;31.27;37.21
11605;BME280;5858;43.076;25.626;2022-08-25T13:12:03;98665.78;;;31.93;34.19
11605;BME280;5858;43.076;25.626;2022-08-25T13:14:37;98633.44;;;31.73;35.07
11605;BME280;5858;43.076;25.626;2022-08-25T13:17:05;98656.00;;;31.54;34.33
11605;BME280;5858;43.076;25.626;2022-08-25T13:19:34;98614.00;;;31.40;35.76
11605;BME280;5858;43.076;25.626;2022-08-25T13:22:09;98692.72;;;32.26;35.61
11605;BME280;5858;43.076;25.626;2022-08-25T13:24:40;98693.31;;;32.43;35.71
11605;BME280;5858;43.076;25.626;2022-08-25T13:27:17;98650.63;;;32.11;33.43
11605;BME280;5858;43.076;25.626;2022-08-25T13:29:49;98672.63;;;32.08;33.55
11605;BME280;5858;43.076;25.626;2022-08-25T13:32:25;98666.00;;;31.88;33.78
11605;BME280;5858;43.076;25.626;2022-08-25T13:35:07;98670.94;;;32.15;34.39
11605;BME280;5858;43.076;25.626;2022-08-25T13:37:34;98619.31;;;31.99;33.21